Baracoa Airport


Codes: SKMG/MGN
Name: Baracoa Airport
City: Magangue
Country: Colombia
Elevation: 178 ft.

Photos at Baracoa Airport


   Photos courtesy of SpottingLog. You can add your own sightings and photos by signing up for a free trial today.



No photos found.

Weather at Baracoa Airport


Time (UTC)DescriptionTempratureWindCloud coverageVisibilityPressureHumidity
15-Apr-2024 18:00Broken Clouds34°C2 mph, SW72%10000m1008hPa48%
15-Apr-2024 21:00Broken Clouds37°C7 mph, W75%10000m1005hPa36%
16-Apr-2024 00:00Broken Clouds29°C13 mph, NW83%10000m1007hPa71%
16-Apr-2024 03:00Few Clouds29°C7 mph, W14%10000m1009hPa69%
16-Apr-2024 06:00Scattered Clouds28°C7 mph, SW47%10000m1008hPa73%
16-Apr-2024 09:00Broken Clouds27°C7 mph, SW62%10000m1007hPa78%
16-Apr-2024 12:00Broken Clouds27°C9 mph, S78%10000m1009hPa79%
16-Apr-2024 15:00Broken Clouds33°C9 mph, S52%10000m1009hPa53%
16-Apr-2024 18:00Scattered Clouds37°C7 mph, SW47%10000m1006hPa40%
16-Apr-2024 21:00Overcast Clouds36°C7 mph, SW89%10000m1003hPa39%
17-Apr-2024 00:00Overcast Clouds30°C13 mph, NW85%10000m1006hPa66%
17-Apr-2024 03:00Overcast Clouds28°C4 mph, W99%10000m1009hPa74%
17-Apr-2024 06:00Light Rain28°C4 mph, S92%10000m1008hPa77%
17-Apr-2024 09:00Light Rain27°C4 mph, SW96%10000m1008hPa80%
17-Apr-2024 12:00Light Rain27°C4 mph, SW65%10000m1009hPa81%
17-Apr-2024 15:00Broken Clouds32°C9 mph, SW71%10000m1009hPa58%
17-Apr-2024 18:00Light Rain34°C4 mph, SW82%10000m1006hPa49%
17-Apr-2024 21:00Light Rain34°C9 mph, SW99%10000m1004hPa48%
18-Apr-2024 00:00Light Rain29°C9 mph, NW100%10000m1007hPa74%
18-Apr-2024 03:00Light Rain27°C4 mph, W98%10000m1009hPa81%
18-Apr-2024 06:00Moderate Rain25°C2 mph, N96%1654m1008hPa88%
18-Apr-2024 09:00Moderate Rain25°C2 mph, S100%10000m1008hPa90%
18-Apr-2024 12:00Light Rain26°C4 mph, SE100%10000m1010hPa86%
18-Apr-2024 15:00Overcast Clouds30°C4 mph, S100%10000m1010hPa67%
18-Apr-2024 18:00Light Rain32°C9 mph, S100%10000m1008hPa59%
18-Apr-2024 21:00Moderate Rain31°C9 mph, SW100%10000m1007hPa64%
19-Apr-2024 00:00Light Rain27°C7 mph, S100%1550m1009hPa84%
19-Apr-2024 03:00Moderate Rain25°C11 mph, SW100%10000m1011hPa95%
19-Apr-2024 06:00Heavy Intensity Rain24°C9 mph, SW100%10000m1011hPa96%
19-Apr-2024 09:00Moderate Rain24°C7 mph, W100%10000m1010hPa91%
19-Apr-2024 12:00Light Rain24°C7 mph, S100%10000m1012hPa92%
19-Apr-2024 15:00Light Rain27°C4 mph, S100%10000m1013hPa77%
19-Apr-2024 18:00Light Rain29°C4 mph, SW100%10000m1010hPa67%
19-Apr-2024 21:00Overcast Clouds31°C7 mph, W100%10000m1008hPa62%
20-Apr-2024 00:00Light Rain26°C7 mph, W99%10000m1010hPa82%
20-Apr-2024 03:00Overcast Clouds26°C4 mph, W100%10000m1012hPa87%
20-Apr-2024 06:00Light Rain25°C4 mph, NW100%10000m1011hPa88%
20-Apr-2024 09:00Light Rain25°C2 mph, N100%10000m1011hPa89%
20-Apr-2024 12:00Overcast Clouds26°C2 mph, E99%10000m1012hPa85%
20-Apr-2024 15:00Light Rain30°C4 mph, E50%10000m1012hPa66%